Time;durP1;ratioP1;P1;durP2;ratioP2;P2;SDS_P1;SDS_P2;PMS_P1;PMS_P2;Temp;Humidity;BMP_temperature;BMP_pressure;BME280_temperature;BME280_humidity;BME280_pressure;Samples;Min_cycle;Max_cycle;Signal;HPM_P1;HPM_P2
2023/06/27 00:00:17;;;;;;;;;;;24.10;49.20;;;;;;5075979;28;19924;-62
2023/06/27 00:02:43;;;;;;;;;;;24.10;49.20;;;;;;5092661;28;19920;-62
2023/06/27 00:05:08;;;;;;;;;;;24.10;49.20;;;;;;5092597;28;19949;-63
2023/06/27 00:07:34;;;;;;;;;;;24.10;49.20;;;;;;5093846;28;20367;-62
2023/06/27 00:09:59;;;;;;;;;;;24.10;49.20;;;;;;5092488;28;19927;-62
2023/06/27 00:12:25;;;;;;;;;;;24.10;49.20;;;;;;5075508;28;19920;-63
2023/06/27 00:14:51;;;;;;;;;;;24.10;49.20;;;;;;5075697;28;20033;-62
2023/06/27 00:17:16;;;;;;;;;;;24.10;49.20;;;;;;5093606;28;19920;-62
2023/06/27 00:19:44;;;;;;;;;;;24.10;49.20;;;;;;5075701;28;19951;-63
2023/06/27 00:22:10;;;;;;;;;;;24.00;49.20;;;;;;5075288;28;20044;-62
2023/06/27 00:24:36;;;;;;;;;;;24.00;49.20;;;;;;5093294;28;20384;-61
2023/06/27 00:27:02;;;;;;;;;;;24.00;49.20;;;;;;5093332;28;20019;-62
2023/06/27 00:29:27;;;;;;;;;;;24.00;49.20;;;;;;5075145;28;20239;-63
2023/06/27 00:31:54;;;;;;;;;;;24.00;49.20;;;;;;5075153;28;19920;-62
2023/06/27 00:34:19;;;;;;;;;;;24.00;49.20;;;;;;5093362;28;20007;-62
2023/06/27 00:36:45;;;;;;;;;;;24.00;49.20;;;;;;5093147;28;19962;-61
2023/06/27 00:39:10;;;;;;;;;;;23.90;49.20;;;;;;5075310;28;19929;-61
2023/06/27 00:41:36;;;;;;;;;;;23.90;49.20;;;;;;5093209;28;19934;-62
2023/06/27 00:44:06;;;;;;;;;;;23.90;49.20;;;;;;5074940;28;19920;-61
2023/06/27 00:46:34;;;;;;;;;;;23.90;49.20;;;;;;5093043;28;20158;-62
2023/06/27 00:49:00;;;;;;;;;;;23.90;49.30;;;;;;5093048;28;20015;-62
2023/06/27 00:51:25;;;;;;;;;;;23.90;49.30;;;;;;5075063;28;20339;-62
2023/06/27 00:53:51;;;;;;;;;;;23.90;49.30;;;;;;5074809;28;20382;-61
2023/06/27 00:56:16;;;;;;;;;;;23.90;49.30;;;;;;5074738;28;19989;-63
2023/06/27 00:58:42;;;;;;;;;;;23.90;49.30;;;;;;5074917;28;20317;-62
2023/06/27 01:01:09;;;;;;;;;;;23.80;49.30;;;;;;5074945;28;20076;-62
2023/06/27 01:03:35;;;;;;;;;;;23.80;49.30;;;;;;5092896;28;19920;-61
2023/06/27 01:06:04;;;;;;;;;;;23.80;49.40;;;;;;5074545;28;20405;-61
2023/06/27 01:08:34;;;;;;;;;;;23.80;49.30;;;;;;5074932;28;20311;-63
2023/06/27 01:11:03;;;;;;;;;;;23.80;49.40;;;;;;5111747;28;20362;-61
2023/06/27 01:13:37;;;;;;;;;;;23.80;49.40;;;;;;5095078;28;19994;-61
2023/06/27 01:16:04;;;;;;;;;;;23.80;49.40;;;;;;5112521;28;20389;-61
2023/06/27 01:18:31;;;;;;;;;;;23.80;49.40;;;;;;5112931;28;19919;-61
2023/06/27 01:20:58;;;;;;;;;;;23.80;49.40;;;;;;5094970;28;20030;-62
2023/06/27 01:23:28;;;;;;;;;;;23.70;49.40;;;;;;5094606;28;19920;-62
2023/06/27 01:26:09;;;;;;;;;;;23.70;49.30;;;;;;5076871;28;19958;-61
2023/06/27 01:28:36;;;;;;;;;;;23.70;50.20;;;;;;5074040;28;21266;-62
2023/06/27 01:31:02;;;;;;;;;;;23.70;49.40;;;;;;5091483;28;19970;-62
2023/06/27 01:33:48;;;;;;;;;;;23.70;49.40;;;;;;5074510;28;19927;-62
2023/06/27 01:36:17;;;;;;;;;;;23.70;49.40;;;;;;5092501;28;19921;-61
2023/06/27 01:38:47;;;;;;;;;;;23.70;49.40;;;;;;5074553;28;19966;-63
2023/06/27 01:41:16;;;;;;;;;;;23.70;49.40;;;;;;5091110;28;19920;-62
2023/06/27 01:43:42;;;;;;;;;;;23.70;49.40;;;;;;5074127;28;19920;-62
2023/06/27 01:46:09;;;;;;;;;;;23.70;49.40;;;;;;5074172;28;19931;-63
2023/06/27 01:48:36;;;;;;;;;;;23.70;49.40;;;;;;5091263;28;19920;-62
2023/06/27 01:51:05;;;;;;;;;;;23.60;49.40;;;;;;5092423;28;19970;-62
2023/06/27 01:53:30;;;;;;;;;;;23.60;49.40;;;;;;5091210;28;19967;-61
2023/06/27 01:55:56;;;;;;;;;;;23.60;49.40;;;;;;5092222;28;19959;-63
2023/06/27 01:58:21;;;;;;;;;;;23.60;49.40;;;;;;5090860;28;19920;-63
2023/06/27 02:00:47;;;;;;;;;;;23.60;49.40;;;;;;5091187;28;19924;-62
2023/06/27 02:03:12;;;;;;;;;;;23.60;49.40;;;;;;5073946;28;19920;-61
2023/06/27 02:05:38;;;;;;;;;;;23.60;49.40;;;;;;5092211;28;19946;-61
2023/06/27 02:08:03;;;;;;;;;;;23.60;49.40;;;;;;5092071;28;19924;-62
2023/06/27 02:10:29;;;;;;;;;;;23.50;49.50;;;;;;5074010;28;20459;-61
2023/06/27 02:12:54;;;;;;;;;;;23.50;49.40;;;;;;5091017;28;19920;-62
2023/06/27 02:15:20;;;;;;;;;;;23.50;49.40;;;;;;5074157;28;19920;-62
2023/06/27 02:17:45;;;;;;;;;;;23.50;49.40;;;;;;5092012;28;19920;-62
2023/06/27 02:20:11;;;;;;;;;;;23.50;49.50;;;;;;5074119;28;19974;-62
2023/06/27 02:22:36;;;;;;;;;;;23.50;49.50;;;;;;5091029;28;20390;-62
2023/06/27 02:25:02;;;;;;;;;;;23.50;49.50;;;;;;5063602;28;20299;-61
2023/06/27 02:27:27;;;;;;;;;;;23.50;49.50;;;;;;5054002;28;20272;-62
2023/06/27 02:29:53;;;;;;;;;;;23.50;49.50;;;;;;5057034;28;19951;-62
2023/06/27 02:32:18;;;;;;;;;;;23.50;49.50;;;;;;5075361;28;19920;-62
2023/06/27 02:34:44;;;;;;;;;;;23.40;49.50;;;;;;5057319;28;19927;-61
2023/06/27 02:37:09;;;;;;;;;;;23.40;49.50;;;;;;5057642;28;19920;-62
2023/06/27 02:39:35;;;;;;;;;;;23.40;49.50;;;;;;5057394;28;19920;-61
2023/06/27 02:42:00;;;;;;;;;;;23.40;49.50;;;;;;5057538;28;19925;-61
2023/06/27 02:44:26;;;;;;;;;;;23.40;49.50;;;;;;5057141;28;19928;-62
2023/06/27 02:46:51;;;;;;;;;;;23.40;49.60;;;;;;5057024;28;19982;-62
2023/06/27 02:49:17;;;;;;;;;;;23.40;49.50;;;;;;5057332;28;19925;-61
2023/06/27 02:51:42;;;;;;;;;;;23.40;49.60;;;;;;5057444;28;19982;-61
2023/06/27 02:54:07;;;;;;;;;;;23.40;49.60;;;;;;5057050;28;19920;-62
2023/06/27 02:56:33;;;;;;;;;;;23.40;49.60;;;;;;5075073;28;19921;-61
2023/06/27 02:58:58;;;;;;;;;;;23.30;49.60;;;;;;5057298;28;20282;-61
2023/06/27 03:01:24;;;;;;;;;;;23.40;49.60;;;;;;5074732;28;19920;-63
2023/06/27 03:03:50;;;;;;;;;;;23.30;49.60;;;;;;5056822;28;20007;-62
2023/06/27 03:06:15;;;;;;;;;;;23.30;49.60;;;;;;5056812;28;19927;-62
2023/06/27 03:08:41;;;;;;;;;;;23.30;49.60;;;;;;5057111;28;20015;-62
2023/06/27 03:11:06;;;;;;;;;;;23.30;49.60;;;;;;5057080;28;20011;-62
2023/06/27 03:13:32;;;;;;;;;;;23.30;49.00;;;;;;5074716;28;20383;-62
2023/06/27 03:15:57;;;;;;;;;;;23.30;49.70;;;;;;5056695;28;19925;-61
2023/06/27 03:18:22;;;;;;;;;;;23.30;49.70;;;;;;5056854;28;19920;-62
2023/06/27 03:20:48;;;;;;;;;;;23.30;49.70;;;;;;5056822;28;19920;-61
2023/06/27 03:23:13;;;;;;;;;;;23.30;49.70;;;;;;5056471;28;19921;-62
2023/06/27 03:25:39;;;;;;;;;;;23.20;49.60;;;;;;5066909;28;19925;-61
2023/06/27 03:28:05;;;;;;;;;;;23.20;49.60;;;;;;5074352;28;19920;-62
2023/06/27 03:30:30;;;;;;;;;;;23.20;49.70;;;;;;5076488;28;19931;-61
2023/06/27 03:32:55;;;;;;;;;;;23.20;49.60;;;;;;5076692;28;20011;-62
2023/06/27 03:35:21;;;;;;;;;;;23.20;49.70;;;;;;5094680;28;20275;-61
2023/06/27 03:37:46;;;;;;;;;;;23.20;49.70;;;;;;5094528;28;19927;-62
2023/06/27 03:40:12;;;;;;;;;;;23.20;49.70;;;;;;5094309;28;20375;-61
2023/06/27 03:42:37;;;;;;;;;;;23.20;49.80;;;;;;5094231;28;19920;-61
2023/06/27 03:45:03;;;;;;;;;;;23.20;49.70;;;;;;5076052;28;20011;-62
2023/06/27 03:47:29;;;;;;;;;;;23.20;49.70;;;;;;5076383;28;19942;-61
2023/06/27 03:49:54;;;;;;;;;;;23.20;49.80;;;;;;5075908;28;20378;-62
2023/06/27 03:52:20;;;;;;;;;;;23.20;49.80;;;;;;5075986;28;19924;-62
2023/06/27 03:54:45;;;;;;;;;;;23.20;49.80;;;;;;5076296;28;19920;-62
2023/06/27 03:57:11;;;;;;;;;;;23.10;49.80;;;;;;5094092;28;20405;-62
2023/06/27 03:59:36;;;;;;;;;;;23.10;49.80;;;;;;5094009;28;19920;-62
2023/06/27 04:02:02;;;;;;;;;;;23.10;49.80;;;;;;5093883;28;19920;-62
2023/06/27 04:04:27;;;;;;;;;;;23.10;49.80;;;;;;5093885;28;19920;-61
2023/06/27 04:06:53;;;;;;;;;;;23.10;49.90;;;;;;5075504;28;19935;-61
2023/06/27 04:09:18;;;;;;;;;;;23.10;49.80;;;;;;5075646;28;20007;-61
2023/06/27 04:11:44;;;;;;;;;;;23.10;49.90;;;;;;5075867;28;19920;-61
2023/06/27 04:14:09;;;;;;;;;;;23.10;50.00;;;;;;5093681;28;19927;-61
2023/06/27 04:16:34;;;;;;;;;;;23.10;49.90;;;;;;5093712;28;19920;-62
2023/06/27 04:19:00;;;;;;;;;;;23.10;50.00;;;;;;5075636;28;20430;-62
2023/06/27 04:21:26;;;;;;;;;;;23.10;50.00;;;;;;5093509;28;19921;-61
2023/06/27 04:23:54;;;;;;;;;;;23.10;50.10;;;;;;5075036;28;19926;-61
2023/06/27 04:26:20;;;;;;;;;;;23.10;50.00;;;;;;5092123;28;19935;-61
2023/06/27 04:28:47;;;;;;;;;;;23.10;50.10;;;;;;5092126;28;19920;-61
2023/06/27 04:31:13;;;;;;;;;;;23.00;50.00;;;;;;5093489;28;19920;-61
2023/06/27 04:33:39;;;;;;;;;;;23.00;50.00;;;;;;5088189;28;19973;-61
2023/06/27 04:36:05;;;;;;;;;;;23.00;50.10;;;;;;5091854;28;19921;-61
2023/06/27 04:38:37;;;;;;;;;;;23.00;50.00;;;;;;5093172;28;19920;-61
2023/06/27 04:41:04;;;;;;;;;;;23.00;50.10;;;;;;5093381;28;19946;-61
2023/06/27 04:43:29;;;;;;;;;;;23.00;50.10;;;;;;5091817;28;19936;-61
2023/06/27 04:45:55;;;;;;;;;;;23.00;50.20;;;;;;5091863;28;20345;-62
2023/06/27 04:48:20;;;;;;;;;;;23.00;50.10;;;;;;5091980;28;19931;-61
2023/06/27 04:50:46;;;;;;;;;;;23.00;50.20;;;;;;5091323;28;19969;-61
2023/06/27 04:53:11;;;;;;;;;;;23.00;50.20;;;;;;5092942;28;19919;-62
2023/06/27 04:55:37;;;;;;;;;;;22.90;50.20;;;;;;5091945;28;19920;-61
2023/06/27 04:58:02;;;;;;;;;;;22.90;50.20;;;;;;5091709;28;19928;-61
2023/06/27 05:00:28;;;;;;;;;;;23.00;50.30;;;;;;5091764;28;20286;-61
2023/06/27 05:02:53;;;;;;;;;;;22.90;50.20;;;;;;5091717;28;19920;-61
2023/06/27 05:05:19;;;;;;;;;;;23.00;50.30;;;;;;5091231;28;19924;-62
2023/06/27 05:07:44;;;;;;;;;;;22.90;50.30;;;;;;5091736;28;19924;-61
2023/06/27 05:10:10;;;;;;;;;;;22.90;50.30;;;;;;5092919;28;19975;-62
2023/06/27 05:12:35;;;;;;;;;;;22.90;50.30;;;;;;5091353;28;20378;-61
2023/06/27 05:15:01;;;;;;;;;;;22.90;50.30;;;;;;5092722;28;19930;-62
2023/06/27 05:17:26;;;;;;;;;;;22.90;50.30;;;;;;5092665;28;19920;-62
2023/06/27 05:19:51;;;;;;;;;;;22.90;50.40;;;;;;5091660;28;19943;-62
2023/06/27 05:22:17;;;;;;;;;;;22.90;50.30;;;;;;5089363;28;19967;-62
2023/06/27 05:24:42;;;;;;;;;;;22.90;50.50;;;;;;5086977;28;20291;-61
2023/06/27 05:27:08;;;;;;;;;;;22.90;50.40;;;;;;5091155;28;19924;-59
2023/06/27 05:29:33;;;;;;;;;;;22.90;50.40;;;;;;5092528;28;19921;-59
2023/06/27 05:31:59;;;;;;;;;;;22.90;50.50;;;;;;5083353;28;19927;-61
2023/06/27 05:34:25;;;;;;;;;;;22.90;50.60;;;;;;5090537;28;19920;-61
2023/06/27 05:36:50;;;;;;;;;;;22.90;51.00;;;;;;5072931;28;19924;-59
2023/06/27 05:39:16;;;;;;;;;;;22.90;50.90;;;;;;5091365;28;19920;-60
2023/06/27 05:41:41;;;;;;;;;;;22.90;51.70;;;;;;5096609;28;20006;-63
2023/06/27 05:44:07;;;;;;;;;;;23.00;51.20;;;;;;5073508;28;19920;-61
2023/06/27 05:46:38;;;;;;;;;;;23.00;51.40;;;;;;5076480;28;19928;-61
2023/06/27 05:49:04;;;;;;;;;;;23.00;51.40;;;;;;5070870;28;19973;-61
2023/06/27 05:51:30;;;;;;;;;;;23.00;51.40;;;;;;5062063;28;19924;-61
2023/06/27 05:53:55;;;;;;;;;;;23.00;51.50;;;;;;5067590;28;20011;-61
2023/06/27 05:56:21;;;;;;;;;;;23.00;51.60;;;;;;5087673;28;19920;-61
2023/06/27 05:58:46;;;;;;;;;;;23.00;51.50;;;;;;5066305;28;19924;-62
2023/06/27 06:01:12;;;;;;;;;;;23.10;51.90;;;;;;5050701;28;19920;-63
2023/06/27 06:03:37;;;;;;;;;;;23.00;51.80;;;;;;5061391;28;19928;-62
2023/06/27 06:06:03;;;;;;;;;;;23.00;51.90;;;;;;5053381;28;19932;-59
2023/06/27 06:08:28;;;;;;;;;;;23.00;52.20;;;;;;5081042;28;19943;-61
2023/06/27 06:10:54;;;;;;;;;;;23.00;52.60;;;;;;5081239;28;20387;-64
2023/06/27 06:13:19;;;;;;;;;;;23.10;52.70;;;;;;5067326;28;19935;-63
2023/06/27 06:15:45;;;;;;;;;;;23.10;52.80;;;;;;5073225;28;19942;-61
2023/06/27 06:18:10;;;;;;;;;;;23.10;53.10;;;;;;5078031;28;20321;-62
2023/06/27 06:20:36;;;;;;;;;;;23.10;53.40;;;;;;5087638;28;19920;-61
2023/06/27 06:23:01;;;;;;;;;;;23.10;53.20;;;;;;5067419;28;19963;-61
2023/06/27 06:25:27;;;;;;;;;;;23.10;53.20;;;;;;5064883;28;19938;-61
2023/06/27 06:27:53;;;;;;;;;;;23.00;53.20;;;;;;5070780;28;19967;-61
2023/06/27 06:30:18;;;;;;;;;;;23.10;53.00;;;;;;5053476;28;19970;-60
2023/06/27 06:32:44;;;;;;;;;;;23.00;52.90;;;;;;5053022;28;19924;-61
2023/06/27 06:35:09;;;;;;;;;;;23.10;52.80;;;;;;5071898;28;19932;-61
2023/06/27 06:37:35;;;;;;;;;;;23.10;52.90;;;;;;5052543;28;19930;-61
2023/06/27 06:40:01;;;;;;;;;;;23.10;52.40;;;;;;5050309;28;19932;-61
2023/06/27 06:42:26;;;;;;;;;;;23.10;52.50;;;;;;5073507;28;20352;-62
2023/06/27 06:44:51;;;;;;;;;;;23.10;52.30;;;;;;5073820;28;19924;-62
2023/06/27 06:47:17;;;;;;;;;;;23.10;52.20;;;;;;5067314;28;19928;-63
2023/06/27 06:49:43;;;;;;;;;;;23.10;52.10;;;;;;5052043;28;19924;-65
2023/06/27 06:52:08;;;;;;;;;;;23.10;52.10;;;;;;5041438;28;19928;-64
2023/06/27 06:54:33;;;;;;;;;;;23.10;52.00;;;;;;5047708;28;19955;-64
2023/06/27 06:56:59;;;;;;;;;;;23.10;51.90;;;;;;5049048;28;19931;-63
2023/06/27 06:59:24;;;;;;;;;;;23.10;51.90;;;;;;5065682;28;19932;-64
2023/06/27 07:01:51;;;;;;;;;;;23.10;51.90;;;;;;5067797;28;19928;-64
2023/06/27 07:04:16;;;;;;;;;;;23.20;52.00;;;;;;5051235;28;20035;-64
2023/06/27 07:06:42;;;;;;;;;;;23.10;51.90;;;;;;5042972;28;19973;-64
2023/06/27 07:09:07;;;;;;;;;;;23.20;52.00;;;;;;5052689;28;20323;-64
2023/06/27 07:11:33;;;;;;;;;;;23.20;51.90;;;;;;5049795;28;19967;-64
2023/06/27 07:13:59;;;;;;;;;;;23.20;51.80;;;;;;5049550;28;19927;-66
2023/06/27 07:16:24;;;;;;;;;;;23.20;51.70;;;;;;5054323;28;19928;-64
2023/06/27 07:18:51;;;;;;;;;;;23.20;51.60;;;;;;5064749;28;19925;-64
2023/06/27 07:21:17;;;;;;;;;;;23.20;51.50;;;;;;5052330;28;20047;-64
2023/06/27 07:23:42;;;;;;;;;;;23.20;51.30;;;;;;5050282;28;19934;-62
2023/06/27 07:26:08;;;;;;;;;;;23.20;51.20;;;;;;5058882;28;20020;-61
2023/06/27 07:28:33;;;;;;;;;;;23.20;51.00;;;;;;5080525;28;19924;-60
2023/06/27 07:30:59;;;;;;;;;;;23.20;51.00;;;;;;5087992;27;20382;-62
2023/06/27 07:33:24;;;;;;;;;;;23.20;51.00;;;;;;5075069;28;20493;-61
2023/06/27 07:35:50;;;;;;;;;;;23.20;50.60;;;;;;5083118;28;20231;-62
2023/06/27 07:38:16;;;;;;;;;;;23.30;50.90;;;;;;5065286;28;19939;-62
2023/06/27 07:40:42;;;;;;;;;;;23.30;51.00;;;;;;5070311;28;19930;-62
2023/06/27 07:43:07;;;;;;;;;;;23.30;51.10;;;;;;5087668;27;19923;-61
2023/06/27 07:45:33;;;;;;;;;;;23.30;51.20;;;;;;5078685;28;19942;-62
2023/06/27 07:47:58;;;;;;;;;;;23.40;51.40;;;;;;5076528;28;20672;-62
2023/06/27 07:50:24;;;;;;;;;;;23.40;51.50;;;;;;5089973;27;19934;-63
2023/06/27 07:52:49;;;;;;;;;;;23.40;51.70;;;;;;5076042;28;19924;-61
2023/06/27 07:55:15;;;;;;;;;;;23.40;51.80;;;;;;5069780;28;19927;-62
2023/06/27 07:57:40;;;;;;;;;;;23.40;52.00;;;;;;5076022;28;20558;-62
2023/06/27 08:00:06;;;;;;;;;;;23.50;52.20;;;;;;5073368;27;19924;-62
2023/06/27 08:02:32;;;;;;;;;;;23.50;52.30;;;;;;5074931;28;20554;-63
2023/06/27 08:04:58;;;;;;;;;;;23.50;52.10;;;;;;5085798;28;19970;-65
2023/06/27 08:07:23;;;;;;;;;;;23.50;52.00;;;;;;5085837;27;20033;-64
2023/06/27 08:09:48;;;;;;;;;;;23.50;51.80;;;;;;5072845;27;19923;-64
2023/06/27 08:12:14;;;;;;;;;;;23.50;51.60;;;;;;5074803;28;19923;-61
2023/06/27 08:14:41;;;;;;;;;;;23.50;51.30;;;;;;5085111;28;19920;-61
2023/06/27 08:17:06;;;;;;;;;;;23.50;51.60;;;;;;5070133;28;19982;-62
2023/06/27 08:19:32;;;;;;;;;;;23.50;51.60;;;;;;5073222;28;19928;-62
2023/06/27 08:21:57;;;;;;;;;;;23.50;51.50;;;;;;5089922;27;20298;-62
2023/06/27 08:24:23;;;;;;;;;;;23.50;51.20;;;;;;5086184;28;19934;-63
2023/06/27 08:26:49;;;;;;;;;;;23.50;51.00;;;;;;5079195;28;19974;-61
2023/06/27 08:29:16;;;;;;;;;;;23.50;50.80;;;;;;5091027;28;19920;-61
2023/06/27 08:31:42;;;;;;;;;;;23.60;50.80;;;;;;5060671;28;19934;-62
2023/06/27 08:34:07;;;;;;;;;;;23.60;50.80;;;;;;5072733;28;19923;-61
2023/06/27 08:36:33;;;;;;;;;;;23.60;50.80;;;;;;5074240;28;19924;-62
2023/06/27 08:38:58;;;;;;;;;;;23.60;50.50;;;;;;5073800;28;19924;-61
2023/06/27 08:41:24;;;;;;;;;;;23.60;50.50;;;;;;5073790;28;19924;-62
2023/06/27 08:43:49;;;;;;;;;;;23.60;50.40;;;;;;5076347;28;19946;-61
2023/06/27 08:46:17;;;;;;;;;;;23.60;50.40;;;;;;5089125;28;20303;-61
2023/06/27 08:48:43;;;;;;;;;;;23.60;50.40;;;;;;5084476;28;20057;-63
2023/06/27 08:51:11;;;;;;;;;;;23.60;50.30;;;;;;5070669;28;19932;-63
2023/06/27 08:53:38;;;;;;;;;;;23.60;50.00;;;;;;5086998;28;20375;-62
2023/06/27 08:56:06;;;;;;;;;;;23.60;50.10;;;;;;5070997;28;19931;-62
2023/06/27 08:58:38;;;;;;;;;;;23.60;50.10;;;;;;5073455;28;21934;-61
2023/06/27 09:01:04;;;;;;;;;;;23.60;50.20;;;;;;5076297;28;20072;-62
2023/06/27 09:03:30;;;;;;;;;;;23.70;50.30;;;;;;5090586;28;19992;-61
2023/06/27 09:05:56;;;;;;;;;;;23.70;50.20;;;;;;5072645;28;20409;-63
2023/06/27 09:08:22;;;;;;;;;;;23.70;50.10;;;;;;5087887;28;19934;-61
2023/06/27 09:10:48;;;;;;;;;;;23.60;49.90;;;;;;5070858;28;19924;-62
2023/06/27 09:13:14;;;;;;;;;;;23.60;50.10;;;;;;5084465;28;20374;-61
2023/06/27 09:15:39;;;;;;;;;;;23.70;50.00;;;;;;5079042;28;20121;-61
2023/06/27 09:18:05;;;;;;;;;;;23.70;50.80;;;;;;5085541;28;20366;-62
2023/06/27 09:20:30;;;;;;;;;;;23.70;49.70;;;;;;5090759;28;19923;-61
2023/06/27 09:22:57;;;;;;;;;;;23.70;49.60;;;;;;5067560;28;19958;-60
2023/06/27 09:25:23;;;;;;;;;;;23.70;49.40;;;;;;5081633;28;19929;-61
2023/06/27 09:27:49;;;;;;;;;;;23.70;49.30;;;;;;5067154;28;20019;-62
2023/06/27 09:30:15;;;;;;;;;;;23.80;49.10;;;;;;5064802;28;20460;-62
2023/06/27 09:32:56;;;;;;;;;;;23.80;48.80;;;;;;5067034;28;19931;-61
2023/06/27 09:35:23;;;;;;;;;;;23.70;48.70;;;;;;5065256;28;19924;-61
2023/06/27 09:37:49;;;;;;;;;;;23.80;48.80;;;;;;5066845;28;19924;-62
2023/06/27 09:40:18;;;;;;;;;;;23.80;48.90;;;;;;5068782;28;20322;-62
2023/06/27 09:42:49;;;;;;;;;;;23.80;48.80;;;;;;5072791;28;19924;-63
2023/06/27 09:45:14;;;;;;;;;;;23.80;48.90;;;;;;5084612;28;19967;-61
2023/06/27 09:47:40;;;;;;;;;;;23.80;48.90;;;;;;5083499;28;20003;-61
2023/06/27 09:50:06;;;;;;;;;;;23.80;48.90;;;;;;5068594;28;19931;-61
2023/06/27 09:52:32;;;;;;;;;;;23.80;48.40;;;;;;5083532;28;19924;-60
2023/06/27 09:54:58;;;;;;;;;;;23.80;48.10;;;;;;5067323;28;19971;-61
2023/06/27 09:57:25;;;;;;;;;;;23.80;48.10;;;;;;5065608;28;19927;-60
2023/06/27 09:59:56;;;;;;;;;;;23.90;48.40;;;;;;5065530;28;19928;-62
2023/06/27 10:02:26;;;;;;;;;;;23.90;48.50;;;;;;5064205;28;19926;-61
2023/06/27 10:04:51;;;;;;;;;;;23.90;48.80;;;;;;5064789;28;20015;-61
2023/06/27 10:07:17;;;;;;;;;;;23.90;49.00;;;;;;5063335;28;20019;-62
2023/06/27 10:09:43;;;;;;;;;;;23.90;49.10;;;;;;5046700;28;19977;-61
2023/06/27 10:12:08;;;;;;;;;;;24.00;49.40;;;;;;5068529;28;19928;-62
2023/06/27 10:14:34;;;;;;;;;;;24.00;49.60;;;;;;5065137;28;19934;-62
2023/06/27 10:17:00;;;;;;;;;;;24.00;49.90;;;;;;5050854;28;19931;-62
2023/06/27 10:19:26;;;;;;;;;;;24.10;49.60;;;;;;5059666;28;20035;-60
2023/06/27 10:21:51;;;;;;;;;;;24.10;49.60;;;;;;5050739;28;19924;-61
2023/06/27 10:24:17;;;;;;;;;;;24.10;50.00;;;;;;5065992;28;19928;-62
2023/06/27 10:26:51;;;;;;;;;;;24.20;50.20;;;;;;5054030;28;19929;-61
2023/06/27 10:29:17;;;;;;;;;;;24.20;50.60;;;;;;5074054;28;19924;-62
2023/06/27 10:31:45;;;;;;;;;;;24.20;50.60;;;;;;5055649;28;19924;-61
2023/06/27 10:34:16;;;;;;;;;;;24.30;50.90;;;;;;5067330;28;20540;-62
2023/06/27 10:37:01;;;;;;;;;;;24.30;51.10;;;;;;5072832;28;20313;-61
2023/06/27 10:39:31;;;;;;;;;;;24.30;50.90;;;;;;5057163;28;19931;-63
2023/06/27 10:42:00;;;;;;;;;;;24.30;51.10;;;;;;5061241;28;19931;-62
2023/06/27 10:44:25;;;;;;;;;;;24.30;51.30;;;;;;5069601;28;19932;-61
2023/06/27 10:47:11;;;;;;;;;;;24.30;50.80;;;;;;5068770;28;19928;-62
2023/06/27 10:49:36;;;;;;;;;;;24.30;51.00;;;;;;5068858;28;19931;-62
2023/06/27 10:52:02;;;;;;;;;;;24.30;51.10;;;;;;5069883;28;19920;-61
2023/06/27 10:54:27;;;;;;;;;;;24.40;51.10;;;;;;5084901;28;19959;-61
2023/06/27 10:56:53;;;;;;;;;;;24.40;51.20;;;;;;5069820;28;20429;-61
2023/06/27 10:59:19;;;;;;;;;;;24.40;51.30;;;;;;5074709;28;19924;-67
2023/06/27 11:01:53;;;;;;;;;;;24.40;51.30;;;;;;5055902;28;19924;-67
2023/06/27 11:04:19;;;;;;;;;;;24.30;50.70;;;;;;5066726;28;19966;-68
2023/06/27 11:06:45;;;;;;;;;;;24.40;50.60;;;;;;5086698;28;20355;-67
2023/06/27 11:09:13;;;;;;;;;;;24.30;50.20;;;;;;5070658;28;19929;-67
2023/06/27 11:11:39;;;;;;;;;;;24.30;50.00;;;;;;5069601;28;19928;-68
2023/06/27 11:14:05;;;;;;;;;;;24.30;49.90;;;;;;5071777;28;19927;-66
2023/06/27 11:16:32;;;;;;;;;;;24.30;49.70;;;;;;5068928;28;20935;-67
2023/06/27 11:18:58;;;;;;;;;;;24.30;49.60;;;;;;5069444;28;19978;-67
2023/06/27 11:21:24;;;;;;;;;;;24.30;49.30;;;;;;5053851;28;19955;-67
2023/06/27 11:23:50;;;;;;;;;;;24.30;49.20;;;;;;5054485;28;19920;-67
2023/06/27 11:26:15;;;;;;;;;;;24.30;49.00;;;;;;5069943;28;19935;-67
2023/06/27 11:28:41;;;;;;;;;;;24.30;48.80;;;;;;5061267;28;20034;-64
2023/06/27 11:31:07;;;;;;;;;;;24.30;48.80;;;;;;5071571;28;19928;-64
2023/06/27 11:33:33;;;;;;;;;;;24.30;48.60;;;;;;5053478;28;20554;-64
2023/06/27 11:35:59;;;;;;;;;;;24.30;49.30;;;;;;5074903;28;20003;-64
2023/06/27 11:38:25;;;;;;;;;;;24.30;48.60;;;;;;5058529;28;20011;-65
2023/06/27 11:40:51;;;;;;;;;;;24.30;48.50;;;;;;5056424;28;20410;-64
2023/06/27 11:43:18;;;;;;;;;;;24.30;48.40;;;;;;5067984;28;19928;-62
2023/06/27 11:45:44;;;;;;;;;;;24.30;48.30;;;;;;5059344;28;19932;-63
2023/06/27 11:48:10;;;;;;;;;;;24.30;48.50;;;;;;5057365;28;20350;-63
2023/06/27 11:50:35;;;;;;;;;;;24.30;48.40;;;;;;5066830;28;19928;-62
2023/06/27 11:53:01;;;;;;;;;;;24.30;49.00;;;;;;5055460;28;19920;-62
2023/06/27 11:55:27;;;;;;;;;;;24.30;48.40;;;;;;5054668;28;19981;-60
2023/06/27 11:57:55;;;;;;;;;;;24.30;48.50;;;;;;5072597;28;19959;-60
2023/06/27 12:00:22;;;;;;;;;;;24.30;48.70;;;;;;5072326;28;19980;-61
2023/06/27 12:02:49;;;;;;;;;;;24.30;48.90;;;;;;5054747;28;20012;-62
2023/06/27 12:05:15;;;;;;;;;;;24.30;48.80;;;;;;5057379;28;19925;-61
2023/06/27 12:07:42;;;;;;;;;;;24.30;48.80;;;;;;5056489;28;19924;-61
2023/06/27 12:10:08;;;;;;;;;;;24.30;48.80;;;;;;5056348;28;19935;-62
2023/06/27 12:12:34;;;;;;;;;;;24.30;48.80;;;;;;5070459;28;19925;-61
2023/06/27 12:15:15;;;;;;;;;;;24.30;48.80;;;;;;5055386;28;19923;-65
2023/06/27 12:17:56;;;;;;;;;;;24.30;48.90;;;;;;5048621;28;19978;-63
2023/06/27 12:20:22;;;;;;;;;;;24.30;48.70;;;;;;5046898;28;20054;-62
2023/06/27 12:22:48;;;;;;;;;;;24.30;48.30;;;;;;5066926;28;19924;-62
2023/06/27 12:25:13;;;;;;;;;;;24.30;47.90;;;;;;5059603;28;20379;-63
2023/06/27 12:27:39;;;;;;;;;;;24.40;47.80;;;;;;5064525;28;20272;-63
2023/06/27 12:30:07;;;;;;;;;;;24.40;47.60;;;;;;5059715;28;20432;-63
2023/06/27 12:32:32;;;;;;;;;;;24.50;47.60;;;;;;5073581;28;19928;-63
2023/06/27 12:34:58;;;;;;;;;;;24.40;47.50;;;;;;5064796;28;19928;-63
2023/06/27 12:37:24;;;;;;;;;;;24.40;47.40;;;;;;5054394;28;19963;-63
2023/06/27 12:39:49;;;;;;;;;;;24.40;47.50;;;;;;5059757;28;20011;-64
2023/06/27 12:42:15;;;;;;;;;;;24.40;47.30;;;;;;5065439;28;19932;-63
2023/06/27 12:44:44;;;;;;;;;;;24.50;47.20;;;;;;5070878;28;19940;-63
2023/06/27 12:47:09;;;;;;;;;;;24.40;47.10;;;;;;5061599;28;19936;-63
2023/06/27 12:49:35;;;;;;;;;;;24.50;46.90;;;;;;5065642;28;20000;-64
2023/06/27 12:52:00;;;;;;;;;;;24.50;46.90;;;;;;5065639;28;19940;-63
2023/06/27 12:54:26;;;;;;;;;;;24.50;47.00;;;;;;5071929;28;19957;-63
2023/06/27 12:56:51;;;;;;;;;;;24.40;46.60;;;;;;5049707;28;19985;-63
2023/06/27 12:59:26;;;;;;;;;;;24.50;46.70;;;;;;5057430;28;19931;-63
2023/06/27 13:01:55;;;;;;;;;;;24.50;46.50;;;;;;5061466;28;20017;-62
2023/06/27 13:04:22;;;;;;;;;;;24.40;46.70;;;;;;5061580;28;19978;-63
2023/06/27 13:06:48;;;;;;;;;;;24.50;46.80;;;;;;5060897;28;20016;-64
2023/06/27 13:09:14;;;;;;;;;;;24.50;47.10;;;;;;5060483;28;20662;-64
2023/06/27 13:11:39;;;;;;;;;;;24.50;47.10;;;;;;5065170;28;19927;-64
2023/06/27 13:14:05;;;;;;;;;;;24.40;46.70;;;;;;5066601;28;20383;-63
2023/06/27 13:16:30;;;;;;;;;;;24.50;46.90;;;;;;5070453;28;19923;-61
2023/06/27 13:18:56;;;;;;;;;;;24.50;47.10;;;;;;5084442;28;20333;-63
2023/06/27 13:21:21;;;;;;;;;;;24.50;47.30;;;;;;5069895;28;20419;-64
2023/06/27 13:23:47;;;;;;;;;;;24.50;47.20;;;;;;5069185;28;20005;-64
2023/06/27 13:26:13;;;;;;;;;;;24.50;47.10;;;;;;5071077;28;19928;-63
2023/06/27 13:28:39;;;;;;;;;;;24.50;46.80;;;;;;5061099;28;20513;-63
2023/06/27 13:31:05;;;;;;;;;;;24.50;46.30;;;;;;5051179;28;19925;-63
2023/06/27 13:33:30;;;;;;;;;;;24.50;46.40;;;;;;5068070;28;19928;-63
2023/06/27 13:35:56;;;;;;;;;;;24.50;46.40;;;;;;5072453;28;20280;-63
2023/06/27 13:38:22;;;;;;;;;;;24.50;46.10;;;;;;5076732;28;19923;-63
2023/06/27 13:40:47;;;;;;;;;;;24.50;45.90;;;;;;5067212;28;20019;-62
2023/06/27 13:43:13;;;;;;;;;;;24.50;46.10;;;;;;5071846;28;20022;-59
2023/06/27 13:45:39;;;;;;;;;;;24.50;46.60;;;;;;5062629;28;19971;-61
2023/06/27 13:48:05;;;;;;;;;;;24.50;46.70;;;;;;5064846;28;19921;-66
2023/06/27 13:50:31;;;;;;;;;;;24.40;46.50;;;;;;5066317;28;19924;-63
2023/06/27 13:52:58;;;;;;;;;;;24.50;46.70;;;;;;5067385;28;20536;-60
2023/06/27 13:55:24;;;;;;;;;;;24.50;46.60;;;;;;5068513;28;20310;-61
2023/06/27 13:57:51;;;;;;;;;;;24.50;47.00;;;;;;5069699;28;19924;-61
2023/06/27 14:00:17;;;;;;;;;;;24.50;46.80;;;;;;5071005;28;19920;-61
2023/06/27 14:02:43;;;;;;;;;;;24.50;46.00;;;;;;5068810;28;19926;-61
2023/06/27 14:05:09;;;;;;;;;;;24.50;45.70;;;;;;5067911;28;20438;-61
2023/06/27 14:07:35;;;;;;;;;;;24.40;46.10;;;;;;5072093;28;19928;-61
2023/06/27 14:10:01;;;;;;;;;;;24.50;45.90;;;;;;5066932;28;19951;-60